Time;durP1;ratioP1;P1;durP2;ratioP2;P2;SDS_P1;SDS_P2;PMS_P1;PMS_P2;Temp;Humidity;BMP_temperature;BMP_pressure;BME280_temperature;BME280_humidity;BME280_pressure;Samples;Min_cycle;Max_cycle;Signal;HPM_P1;HPM_P2
2021/03/18 11:45:50;;;;;;;38.38;36.80;;;;;;;;;;5090963;28;20569;-75
2021/03/18 11:48:16;;;;;;;42.05;39.95;;;;;;;;;;5090798;28;20266;-75
2021/03/18 11:50:42;;;;;;;43.05;41.05;;;;;;;;;;5090820;28;20233;-75
2021/03/18 11:53:08;;;;;;;46.30;44.25;;;;;;;;;;5089461;28;20175;-75
2021/03/18 11:55:35;;;;;;;43.10;41.17;;;;;;;;;;5090763;28;20578;-75
2021/03/18 11:58:02;;;;;;;42.63;40.72;;;;;;;;;;5089327;28;20240;-75
2021/03/18 12:00:37;;;;;;;38.53;37.00;;;;;;;;;;5090701;28;20188;-75
2021/03/18 12:03:04;;;;;;;38.33;36.70;;;;;;;;;;5090634;28;20163;-75
2021/03/18 12:05:31;;;;;;;36.60;35.13;;;;;;;;;;5090467;28;20195;-75
2021/03/18 12:07:57;;;;;;;37.78;36.17;;;;;;;;;;5090498;28;20218;-75
2021/03/18 12:10:23;;;;;;;37.53;35.92;;;;;;;;;;5090421;28;20172;-75
2021/03/18 12:12:49;;;;;;;37.50;35.90;;;;;;;;;;5090422;28;20164;-75
2021/03/18 12:15:16;;;;;;;39.35;37.42;;;;;;;;;;5090408;28;20168;-75
2021/03/18 12:17:42;;;;;;;39.03;37.22;;;;;;;;;;5090393;28;20164;-75
2021/03/18 12:20:10;;;;;;;36.90;35.40;;;;;;;;;;5090467;28;20172;-75
2021/03/18 12:22:37;;;;;;;38.15;36.63;;;;;;;;;;5090255;28;20230;-75
2021/03/18 12:25:04;;;;;;;36.67;35.03;;;;;;;;;;5088813;28;20200;-75
2021/03/18 12:27:30;;;;;;;37.92;36.03;;;;;;;;;;5090188;28;20168;-75
2021/03/18 12:29:56;;;;;;;37.55;35.97;;;;;;;;;;5090199;28;20617;-75
2021/03/18 12:32:22;;;;;;;38.05;36.35;;;;;;;;;;5090063;28;20182;-75
2021/03/18 12:34:48;;;;;;;35.47;34.17;;;;;;;;;;5090022;28;20697;-75
2021/03/18 12:37:15;;;;;;;37.25;35.13;;;;;;;;;;5089993;28;20527;-75
2021/03/18 12:39:42;;;;;;;35.50;34.20;;;;;;;;;;5089922;28;20679;-75
2021/03/18 12:42:09;;;;;;;34.60;33.30;;;;;;;;;;5089861;28;20527;-75
2021/03/18 12:44:35;;;;;;;34.83;33.50;;;;;;;;;;5089591;28;20254;-75
2021/03/18 12:47:01;;;;;;;35.95;34.45;;;;;;;;;;5089802;28;20167;-75
2021/03/18 12:49:27;;;;;;;36.13;34.67;;;;;;;;;;5089665;28;20188;-75
2021/03/18 12:51:53;;;;;;;34.88;33.38;;;;;;;;;;5089744;28;20164;-75
2021/03/18 12:54:19;;;;;;;36.95;35.42;;;;;;;;;;5089581;28;20754;-75
2021/03/18 12:56:45;;;;;;;37.50;36.08;;;;;;;;;;5077331;28;20225;-75
2021/03/18 12:59:11;;;;;;;36.40;34.65;;;;;;;;;;5076043;28;20229;-75
2021/03/18 13:01:37;;;;;;;39.17;37.38;;;;;;;;;;5076064;28;20620;-75
2021/03/18 13:04:04;;;;;;;40.08;38.58;;;;;;;;;;5075904;28;20200;-76
2021/03/18 13:06:30;;;;;;;39.45;37.85;;;;;;;;;;5075919;28;20196;-75
2021/03/18 13:08:56;;;;;;;38.20;36.80;;;;;;;;;;5075785;28;20165;-75
2021/03/18 13:11:22;;;;;;;37.83;36.33;;;;;;;;;;5075905;28;20176;-75
2021/03/18 13:13:48;;;;;;;37.30;35.90;;;;;;;;;;5075746;28;20287;-75
2021/03/18 13:29:17;;;;;;;32.83;31.42;;;;;;;;;;5090897;27;20602;-74
2021/03/18 13:31:44;;;;;;;34.72;33.50;;;;;;;;;;5090860;28;20199;-74
2021/03/18 13:34:11;;;;;;;33.42;32.22;;;;;;;;;;5090831;28;20622;-75
2021/03/18 13:36:37;;;;;;;35.08;33.78;;;;;;;;;;5090793;28;20229;-75
2021/03/18 13:39:05;;;;;;;36.08;34.78;;;;;;;;;;5090740;28;20171;-75
2021/03/18 13:41:31;;;;;;;35.17;33.88;;;;;;;;;;5090642;28;20160;-75
2021/03/18 13:43:57;;;;;;;36.00;34.70;;;;;;;;;;5090548;28;20229;-75
2021/03/18 13:46:23;;;;;;;35.40;34.10;;;;;;;;;;5089272;28;20168;-75
2021/03/18 13:48:50;;;;;;;35.05;33.78;;;;;;;;;;5090470;28;20525;-75
2021/03/18 13:51:16;;;;;;;35.47;34.17;;;;;;;;;;5089241;28;20706;-75
2021/03/18 13:53:42;;;;;;;36.17;34.85;;;;;;;;;;5089154;28;20176;-75
2021/03/18 13:56:09;;;;;;;35.90;34.17;;;;;;;;;;5090442;28;20168;-75
2021/03/18 13:58:35;;;;;;;34.35;33.13;;;;;;;;;;5089153;28;20627;-75
2021/03/18 14:01:01;;;;;;;34.95;33.65;;;;;;;;;;5090260;28;20229;-75
2021/03/18 14:03:28;;;;;;;35.53;33.85;;;;;;;;;;5090301;28;20194;-75
2021/03/18 14:05:54;;;;;;;34.17;32.97;;;;;;;;;;5090254;28;20175;-75
2021/03/18 14:08:20;;;;;;;36.08;34.67;;;;;;;;;;5090108;28;20552;-75
2021/03/18 14:10:47;;;;;;;36.33;34.92;;;;;;;;;;5088867;28;20510;-75
2021/03/18 14:28:14;;;;;;;37.67;36.17;;;;;;;;;;5090855;28;20594;-74
2021/03/18 14:30:41;;;;;;;41.95;40.20;;;;;;;;;;5090832;28;20164;-74
2021/03/18 14:33:08;;;;;;;44.85;42.88;;;;;;;;;;5090833;28;20246;-75
2021/03/18 14:35:34;;;;;;;47.03;44.92;;;;;;;;;;5090718;28;20168;-75
2021/03/18 14:38:01;;;;;;;48.10;45.72;;;;;;;;;;5090737;28;20199;-75
2021/03/18 14:40:28;;;;;;;46.35;44.33;;;;;;;;;;5089424;28;20225;-75
2021/03/18 14:42:54;;;;;;;50.42;48.13;;;;;;;;;;5089377;28;20176;-75
2021/03/18 14:45:20;;;;;;;46.28;44.10;;;;;;;;;;5090656;28;20686;-75
2021/03/18 14:47:46;;;;;;;45.38;43.55;;;;;;;;;;5090509;28;20207;-75
2021/03/18 14:50:13;;;;;;;149.57;140.30;;;;;;;;;;5090556;28;20168;-78
2021/03/18 14:52:40;;;;;;;48.35;46.15;;;;;;;;;;5090435;28;20617;-76
2021/03/18 14:55:07;;;;;;;49.47;47.22;;;;;;;;;;5090356;28;20167;-70
2021/03/18 14:57:33;;;;;;;48.08;45.75;;;;;;;;;;5088965;28;20180;-70
2021/03/18 14:59:59;;;;;;;49.90;47.45;;;;;;;;;;5090277;28;20172;-70
2021/03/18 15:32:23;;;;;;;39.03;37.47;;;;;;;;;;5090864;27;20585;-69
2021/03/18 15:34:49;;;;;;;43.15;41.45;;;;;;;;;;5090796;28;20175;-69
2021/03/18 15:37:15;;;;;;;45.53;43.67;;;;;;;;;;5089459;28;20172;-69
2021/03/18 15:39:43;;;;;;;50.22;48.00;;;;;;;;;;5091379;28;20174;-71
2021/03/18 15:42:09;;;;;;;45.33;43.45;;;;;;;;;;5090732;28;20572;-69
2021/03/18 15:44:35;;;;;;;48.92;46.92;;;;;;;;;;5092083;28;20262;-69
2021/03/18 16:15:36;;;;;;;44.67;42.78;;;;;;;;;;5090867;27;20598;-69
2021/03/18 16:18:02;;;;;;;50.88;48.58;;;;;;;;;;5090816;28;20254;-70
2021/03/18 16:20:28;;;;;;;59.67;56.85;;;;;;;;;;5089687;28;20176;-76
2021/03/18 16:22:57;;;;;;;172.70;157.75;;;;;;;;;;5090748;28;20172;-78
